Time;durP1;ratioP1;P1;durP2;ratioP2;P2;SDS_P1;SDS_P2;PMS_P1;PMS_P2;Temp;Humidity;BMP_temperature;BMP_pressure;BME280_temperature;BME280_humidity;BME280_pressure;Samples;Min_cycle;Max_cycle;Signal;HPM_P1;HPM_P2
2022/06/21 00:00:38;;;;;;;10.45;4.32;;;12.50;94.90;;;;;;5013588;28;20069;-44
2022/06/21 00:03:10;;;;;;;10.63;4.70;;;12.60;94.90;;;;;;5014786;28;20034;-57
2022/06/21 00:05:48;;;;;;;12.95;4.78;;;12.50;94.80;;;;;;5014826;28;20034;-53
2022/06/21 00:08:26;;;;;;;12.02;4.60;;;12.60;94.70;;;;;;5015066;28;20033;-60
2022/06/21 00:10:54;;;;;;;11.82;4.63;;;12.50;94.70;;;;;;5014797;28;20520;-53
2022/06/21 00:13:30;;;;;;;11.98;5.20;;;12.50;94.70;;;;;;5014461;28;20096;-59
2022/06/21 00:16:02;;;;;;;11.88;5.28;;;12.40;94.70;;;;;;5014404;28;20088;-59
2022/06/21 00:18:31;;;;;;;12.30;4.93;;;12.50;95.00;;;;;;5014618;28;20029;-61
2022/06/21 00:20:57;;;;;;;11.50;4.72;;;12.40;94.90;;;;;;5014484;28;20022;-58
2022/06/21 00:23:29;;;;;;;16.52;5.10;;;12.30;94.80;;;;;;5014258;28;20107;-46
2022/06/21 00:25:56;;;;;;;22.48;5.38;;;12.30;94.80;;;;;;5014382;28;20041;-61
2022/06/21 00:28:21;;;;;;;12.80;4.57;;;12.30;94.90;;;;;;5014623;28;20033;-54
2022/06/21 00:30:49;;;;;;;9.35;4.85;;;12.30;94.80;;;;;;5014384;28;20125;-58
2022/06/21 00:33:18;;;;;;;14.48;5.65;;;12.30;94.80;;;;;;5014171;28;20383;-58
2022/06/21 00:35:46;;;;;;;10.40;4.53;;;12.20;94.80;;;;;;5014479;28;20030;-55
2022/06/21 00:38:14;;;;;;;11.37;4.80;;;12.20;94.90;;;;;;5014390;28;20029;-59
2022/06/21 00:40:41;;;;;;;12.20;4.53;;;12.10;94.90;;;;;;5014199;28;20026;-59
2022/06/21 00:43:16;;;;;;;10.90;4.65;;;12.00;95.10;;;;;;5014119;28;20498;-59
2022/06/21 00:45:46;;;;;;;11.27;5.20;;;12.00;95.50;;;;;;5014114;28;20469;-53
2022/06/21 00:48:18;;;;;;;;;;;11.90;95.40;;;;;;5014682;28;20054;-44
2022/06/21 00:50:48;;;;;;;10.93;4.63;;;11.90;95.30;;;;;;5014026;28;19905;-54
2022/06/21 00:53:17;;;;;;;10.25;4.30;;;11.90;95.40;;;;;;5014301;28;20041;-56
2022/06/21 00:55:47;;;;;;;9.05;4.45;;;11.70;95.50;;;;;;5013947;28;20026;-53
2022/06/21 00:58:13;;;;;;;;;;;11.70;95.20;;;;;;5014591;28;20036;-63
2022/06/21 01:00:54;;;;;;;9.18;4.25;;;11.70;95.10;;;;;;5013834;28;19948;-61
2022/06/21 01:03:25;;;;;;;9.77;4.22;;;11.60;95.20;;;;;;5013804;28;20034;-56
2022/06/21 01:05:53;;;;;;;12.93;4.68;;;11.60;95.10;;;;;;5013727;28;20037;-58
2022/06/21 01:08:28;;;;;;;11.70;4.40;;;11.50;95.40;;;;;;5013770;28;20097;-55
2022/06/21 01:10:58;;;;;;;11.57;4.80;;;11.50;95.60;;;;;;5013609;28;20401;-62
2022/06/21 01:13:27;;;;;;;11.75;4.57;;;11.50;95.70;;;;;;5013423;28;20104;-59
2022/06/21 01:15:54;;;;;;;9.68;4.57;;;11.50;95.80;;;;;;5013433;28;20117;-59
2022/06/21 01:18:22;;;;;;;9.93;4.65;;;11.50;96.00;;;;;;5013686;28;20045;-52
2022/06/21 01:20:52;;;;;;;12.20;4.80;;;11.50;96.00;;;;;;5013468;28;20029;-61
2022/06/21 01:23:20;;;;;;;;;;;11.60;96.00;;;;;;5013914;28;20052;-57
2022/06/21 01:26:03;;;;;;;10.25;4.10;;;11.60;95.30;;;;;;5012912;28;19909;-59
2022/06/21 01:28:32;;;;;;;9.65;4.43;;;11.50;95.20;;;;;;5013336;28;20564;-59
2022/06/21 01:30:58;;;;;;;10.55;4.50;;;11.40;95.00;;;;;;5013266;28;20030;-59
2022/06/21 01:33:35;;;;;;;9.48;4.50;;;11.30;95.20;;;;;;5012327;28;20034;-62
2022/06/21 01:36:05;;;;;;;10.43;4.65;;;11.30;95.40;;;;;;5012843;28;20095;-57
2022/06/21 01:38:38;;;;;;;11.57;4.57;;;11.30;95.80;;;;;;5013234;28;20424;-55
2022/06/21 01:41:10;;;;;;;15.07;4.45;;;11.30;95.90;;;;;;5013222;28;20030;-60
2022/06/21 01:43:40;;;;;;;13.25;4.75;;;11.40;95.90;;;;;;5013226;28;20496;-54
2022/06/21 01:46:09;;;;;;;10.25;4.78;;;11.40;95.80;;;;;;5013032;28;20056;-56
2022/06/21 01:48:40;;;;;;;12.87;4.90;;;11.40;95.90;;;;;;5012976;28;20064;-51
2022/06/21 01:51:15;;;;;;;9.45;4.93;;;11.40;95.80;;;;;;5012954;28;20762;-57
2022/06/21 01:53:42;;;;;;;10.38;4.80;;;11.40;95.70;;;;;;5012775;28;20128;-45
2022/06/21 01:56:15;;;;;;;13.25;4.78;;;11.40;95.70;;;;;;5012409;28;20068;-65
2022/06/21 01:58:48;;;;;;;9.57;4.90;;;11.30;95.60;;;;;;5012554;28;20080;-56
2022/06/21 02:01:37;;;;;;;9.95;4.65;;;11.40;95.70;;;;;;5012868;28;20101;-62
2022/06/21 02:04:04;;;;;;;10.00;4.70;;;11.40;95.80;;;;;;5012292;28;20046;-62
2022/06/21 02:06:33;;;;;;;7.18;4.05;;;11.30;95.20;;;;;;5011777;28;20026;-60
2022/06/21 02:09:06;;;;;;;9.68;4.65;;;11.30;95.10;;;;;;5012632;28;20422;-61
2022/06/21 02:11:47;;;;;;;11.50;4.78;;;11.20;95.10;;;;;;5012516;28;20045;-53
2022/06/21 02:14:29;;;;;;;10.70;4.65;;;11.10;95.50;;;;;;5012322;28;20100;-55
2022/06/21 02:17:06;;;;;;;13.40;4.60;;;11.00;95.80;;;;;;5012304;28;20030;-60
2022/06/21 02:19:38;;;;;;;7.03;3.95;;;11.00;96.00;;;;;;5000021;28;20030;-58
2022/06/21 02:22:05;;;;;;;13.15;4.80;;;11.00;95.90;;;;;;5012330;28;20478;-46
2022/06/21 02:24:31;;;;;;;10.40;4.68;;;11.00;95.70;;;;;;5012318;28;20080;-53
2022/06/21 02:27:00;;;;;;;8.05;4.03;;;11.00;95.60;;;;;;5011997;28;20090;-55
2022/06/21 02:29:25;;;;;;;9.85;4.57;;;11.00;95.50;;;;;;5008780;28;20026;-58
2022/06/21 02:31:51;;;;;;;9.75;4.35;;;10.90;95.70;;;;;;5001488;28;20389;-60
2022/06/21 02:34:22;;;;;;;10.35;4.90;;;10.90;95.70;;;;;;5012087;28;20029;-58
2022/06/21 02:36:58;;;;;;;8.85;4.60;;;11.00;95.70;;;;;;5011776;28;20022;-61
2022/06/21 02:39:27;;;;;;;9.98;4.53;;;10.90;95.60;;;;;;5011872;28;20037;-54
2022/06/21 02:41:59;;;;;;;12.40;4.90;;;10.90;95.80;;;;;;5012090;28;20034;-54
2022/06/21 02:44:30;;;;;;;12.23;4.43;;;10.90;96.00;;;;;;5011761;28;20026;-44
2022/06/21 02:47:04;;;;;;;10.00;4.90;;;10.90;95.90;;;;;;5011959;28;20029;-54
2022/06/21 02:49:42;;;;;;;7.68;4.38;;;10.90;96.00;;;;;;5011879;28;20496;-55
2022/06/21 02:52:18;;;;;;;11.00;4.63;;;10.90;95.90;;;;;;5012061;28;20133;-61
2022/06/21 02:54:53;;;;;;;8.88;4.13;;;10.90;96.00;;;;;;5010999;28;20026;-59
2022/06/21 02:57:43;;;;;;;13.18;5.18;;;10.90;96.00;;;;;;5011923;28;20022;-58
2022/06/21 03:00:15;;;;;;;9.55;4.57;;;10.80;95.90;;;;;;5010376;28;20105;-58
2022/06/21 03:02:40;;;;;;;11.30;4.63;;;10.80;96.20;;;;;;5011736;28;20042;-55
2022/06/21 03:05:19;;;;;;;10.00;4.53;;;10.80;96.30;;;;;;5011537;28;20024;-55
2022/06/21 03:07:53;;;;;;;10.55;4.40;;;10.80;96.20;;;;;;5011684;28;20030;-61
2022/06/21 03:10:27;;;;;;;8.45;3.80;;;10.80;95.70;;;;;;5011511;28;20710;-59
2022/06/21 03:13:20;;;;;;;9.20;4.22;;;10.80;95.80;;;;;;5011450;28;20042;-56
2022/06/21 03:15:57;;;;;;;8.55;4.38;;;10.70;95.60;;;;;;5010542;28;20045;-54
2022/06/21 03:18:26;;;;;;;10.45;4.90;;;10.70;95.80;;;;;;5010560;28;20506;-60
2022/06/21 03:20:53;;;;;;;9.80;5.37;;;10.70;96.30;;;;;;5011590;28;20052;-60
2022/06/21 03:23:21;;;;;;;12.07;5.22;;;10.60;96.30;;;;;;5011437;28;20339;-58
2022/06/21 03:25:55;;;;;;;11.00;5.07;;;10.60;96.40;;;;;;5010486;28;20511;-48
2022/06/21 03:28:24;;;;;;;15.48;5.75;;;10.60;96.50;;;;;;5011457;28;20160;-53
2022/06/21 03:31:21;;;;;;;10.75;5.10;;;10.60;96.60;;;;;;5011320;28;20057;-59
2022/06/21 03:33:50;;;;;;;14.18;5.57;;;10.60;96.50;;;;;;4998017;28;20133;-56
2022/06/21 03:36:22;;;;;;;13.30;5.30;;;10.60;96.60;;;;;;5010939;28;20026;-60
2022/06/21 03:39:07;;;;;;;10.93;4.82;;;10.60;96.50;;;;;;5011248;28;20030;-59
2022/06/21 03:41:43;;;;;;;10.65;4.93;;;10.60;96.70;;;;;;5011252;28;20118;-58
2022/06/21 03:44:29;;;;;;;12.85;5.10;;;10.60;96.60;;;;;;5011185;28;20029;-60
2022/06/21 03:47:15;;;;;;;10.00;5.07;;;10.60;96.60;;;;;;5008557;28;20088;-61
2022/06/21 03:50:03;;;;;;;9.57;4.93;;;10.60;96.60;;;;;;5010941;28;20121;-61
2022/06/21 03:52:43;;;;;;;12.70;5.28;;;10.60;96.60;;;;;;5010949;28;20037;-59
2022/06/21 03:55:25;;;;;;;10.77;4.70;;;10.60;96.60;;;;;;5010813;28;20026;-60
2022/06/21 03:58:06;;;;;;;11.10;5.20;;;10.60;96.60;;;;;;5010949;28;20102;-57
2022/06/21 04:00:44;;;;;;;12.98;5.05;;;10.60;96.50;;;;;;4998919;28;20022;-58
2022/06/21 04:03:16;;;;;;;12.25;5.25;;;10.60;96.50;;;;;;5010991;28;20025;-54
2022/06/21 04:05:56;;;;;;;10.48;5.05;;;10.60;96.60;;;;;;5010724;28;20556;-52
2022/06/21 04:08:37;;;;;;;10.13;4.78;;;10.60;96.20;;;;;;5011008;28;20067;-57
2022/06/21 04:11:16;;;;;;;9.82;4.40;;;10.70;96.40;;;;;;5011042;28;20030;-64
2022/06/21 04:13:53;;;;;;;10.50;4.70;;;10.70;96.40;;;;;;5010684;28;20504;-50
2022/06/21 04:16:30;;;;;;;10.05;4.63;;;10.80;96.30;;;;;;5000063;28;20118;-51
2022/06/21 04:19:40;;;;;;;8.93;4.88;;;10.80;96.00;;;;;;5009888;28;20029;-55
2022/06/21 04:22:31;;;;;;;9.02;4.78;;;10.80;96.30;;;;;;5010699;28;20540;-59
2022/06/21 04:25:19;;;;;;;9.80;4.95;;;10.90;96.40;;;;;;5010419;28;20037;-57
2022/06/21 04:27:52;;;;;;;14.20;6.03;;;10.90;96.40;;;;;;4997347;28;20036;-43
2022/06/21 04:30:25;;;;;;;9.27;4.63;;;11.00;96.40;;;;;;5012743;28;20137;-47
2022/06/21 04:32:57;;;;;;;9.95;5.13;;;11.00;96.40;;;;;;5014545;28;20049;-58
2022/06/21 04:35:33;;;;;;;12.43;5.45;;;11.10;96.40;;;;;;5013966;28;20041;-59
2022/06/21 04:38:07;;;;;;;12.10;4.80;;;11.20;96.50;;;;;;5014349;28;20022;-47
2022/06/21 04:40:39;;;;;;;9.50;4.68;;;11.30;96.30;;;;;;5014353;28;20034;-53
2022/06/21 04:43:07;;;;;;;9.82;4.85;;;11.40;96.20;;;;;;5014238;28;20056;-48
2022/06/21 04:45:45;;;;;;;11.15;4.90;;;11.50;95.90;;;;;;5013964;28;20032;-52
2022/06/21 04:48:36;;;;;;;7.50;4.20;;;11.70;95.70;;;;;;5013902;28;20037;-51
2022/06/21 04:51:07;;;;;;;12.15;4.95;;;11.80;95.70;;;;;;5014151;28;20105;-58
2022/06/21 04:53:42;;;;;;;8.32;4.00;;;12.00;95.40;;;;;;5014280;28;20141;-53
2022/06/21 04:56:29;;;;;;;13.45;4.72;;;12.20;95.10;;;;;;5013584;28;20416;-42
2022/06/21 04:58:56;;;;;;;9.77;4.32;;;12.50;94.50;;;;;;5002550;28;20061;-57
2022/06/21 05:01:34;;;;;;;12.32;4.72;;;12.70;94.20;;;;;;5013924;28;20045;-62
2022/06/21 05:04:24;;;;;;;8.20;4.03;;;12.90;94.00;;;;;;5013946;28;20489;-54
2022/06/21 05:06:51;;;;;;;13.73;4.90;;;13.30;93.60;;;;;;5013484;28;20022;-52
2022/06/21 05:09:20;;;;;;;11.27;4.35;;;13.70;93.30;;;;;;5013763;28;20540;-61
2022/06/21 05:11:54;;;;;;;10.65;4.38;;;14.00;92.70;;;;;;5012764;28;20045;-56
2022/06/21 05:14:24;;;;;;;10.00;4.25;;;14.30;91.70;;;;;;5012902;28;20069;-53
2022/06/21 05:16:50;;;;;;;9.40;4.20;;;14.30;91.50;;;;;;5011950;28;20029;-44
2022/06/21 05:19:22;;;;;;;13.25;3.95;;;14.30;91.20;;;;;;5010430;28;20401;-56
2022/06/21 05:21:50;;;;;;;9.73;4.35;;;14.20;91.40;;;;;;5005105;28;20061;-45
2022/06/21 05:24:16;;;;;;;12.45;4.40;;;14.10;91.80;;;;;;5013484;28;20049;-55
2022/06/21 05:27:03;;;;;;;9.70;4.18;;;14.20;92.20;;;;;;5013039;28;20026;-51
2022/06/21 05:29:52;;;;;;;6.93;3.67;;;14.10;92.00;;;;;;5013368;28;20026;-56
2022/06/21 05:32:22;;;;;;;9.50;4.93;;;14.10;92.50;;;;;;5011199;28;20025;-59
2022/06/21 05:34:53;;;;;;;11.07;4.45;;;14.00;92.20;;;;;;5013165;28;20030;-54
2022/06/21 05:37:24;;;;;;;10.38;4.15;;;14.00;92.40;;;;;;5012928;28;20018;-53
2022/06/21 05:39:51;;;;;;;8.55;4.43;;;14.00;92.80;;;;;;5013008;28;20548;-58
2022/06/21 05:42:20;;;;;;;7.75;4.28;;;14.20;93.30;;;;;;5012134;28;20504;-49
2022/06/21 05:44:48;;;;;;;8.70;4.13;;;14.30;92.90;;;;;;5012964;28;20477;-57
2022/06/21 05:47:20;;;;;;;10.38;4.50;;;14.40;92.80;;;;;;5013118;28;20025;-56
2022/06/21 05:49:46;;;;;;;10.32;4.75;;;14.50;92.80;;;;;;5008498;28;20588;-58
2022/06/21 05:52:30;;;;;;;9.77;4.20;;;14.70;93.20;;;;;;5010109;28;20088;-51
2022/06/21 05:55:18;;;;;;;11.15;4.18;;;14.90;93.10;;;;;;5010763;28;20021;-52
2022/06/21 05:57:48;;;;;;;11.25;4.10;;;15.40;92.20;;;;;;5011801;28;20437;-49
2022/06/21 06:00:25;;;;;;;10.70;4.28;;;15.70;91.50;;;;;;5011603;28;20370;-49
2022/06/21 06:02:57;;;;;;;16.00;3.72;;;16.40;88.80;;;;;;5012718;28;20088;-42
2022/06/21 06:05:30;;;;;;;8.90;3.80;;;16.70;86.80;;;;;;5012236;28;20441;-48
2022/06/21 06:08:01;;;;;;;10.05;4.22;;;17.10;86.60;;;;;;5012019;28;20021;-52
2022/06/21 06:10:28;;;;;;;10.02;3.60;;;17.30;85.90;;;;;;5009889;28;20482;-51
2022/06/21 06:13:01;;;;;;;18.75;4.55;;;17.20;86.30;;;;;;5010499;28;20048;-42
2022/06/21 06:15:32;;;;;;;11.25;3.90;;;17.00;86.30;;;;;;5010215;28;20050;-54
2022/06/21 06:18:13;;;;;;;10.60;4.25;;;16.80;88.70;;;;;;5010632;28;20027;-52
2022/06/21 06:21:23;;;;;;;10.73;3.78;;;16.80;89.00;;;;;;5009644;28;20385;-46
2022/06/21 06:23:54;;;;;;;10.35;3.70;;;17.30;90.80;;;;;;5010560;28;20436;-54
2022/06/21 06:26:23;;;;;;;8.93;3.42;;;18.10;87.90;;;;;;5012327;28;20088;-57
2022/06/21 06:28:58;;;;;;;;;;;19.20;84.60;;;;;;5012517;28;20033;-47
2022/06/21 06:31:37;;;;;;;9.50;2.92;;;19.90;80.40;;;;;;5012086;28;19905;-59
2022/06/21 06:34:16;;;;;;;13.55;3.58;;;20.50;77.70;;;;;;5011881;28;20061;-51
2022/06/21 06:36:47;;;;;;;9.45;2.90;;;20.80;77.70;;;;;;5012151;28;20022;-53
2022/06/21 06:39:23;;;;;;;9.80;3.03;;;21.30;74.70;;;;;;5012018;28;20112;-50
2022/06/21 06:41:58;;;;;;;8.70;2.92;;;22.30;71.40;;;;;;5012122;28;20018;-54
2022/06/21 06:44:27;;;;;;;8.00;2.88;;;23.10;69.00;;;;;;5011949;28;20034;-51
2022/06/21 06:46:54;;;;;;;;;;;23.70;68.50;;;;;;5008282;28;20362;-56
2022/06/21 06:49:29;;;;;;;8.20;2.97;;;24.30;67.50;;;;;;5011057;28;19913;-54
2022/06/21 06:52:09;;;;;;;10.48;2.85;;;24.90;64.80;;;;;;5011637;28;20038;-60
2022/06/21 06:54:53;;;;;;;10.77;3.13;;;25.10;64.10;;;;;;5011846;28;20034;-61
2022/06/21 06:57:41;;;;;;;11.48;2.90;;;25.20;62.10;;;;;;5011734;28;20018;-62
2022/06/21 07:00:22;;;;;;;12.25;3.10;;;25.10;60.40;;;;;;5011452;28;20500;-59
2022/06/21 07:02:59;;;;;;;7.95;2.72;;;24.70;61.90;;;;;;5010974;28;20504;-53
2022/06/21 07:05:46;;;;;;;7.47;2.75;;;24.10;62.30;;;;;;5011070;28;20278;-60
2022/06/21 07:08:23;;;;;;;9.38;3.10;;;23.60;64.80;;;;;;5009029;28;20029;-60
2022/06/21 07:10:52;;;;;;;8.27;2.63;;;22.80;64.70;;;;;;5009756;28;20018;-55
2022/06/21 07:13:18;;;;;;;8.05;2.35;;;22.30;66.30;;;;;;5011292;28;20045;-56
2022/06/21 07:15:46;;;;;;;7.72;2.72;;;22.00;70.60;;;;;;5010816;28;20209;-60
2022/06/21 07:18:26;;;;;;;10.30;3.38;;;21.50;68.60;;;;;;5011156;28;20029;-54
2022/06/21 07:20:52;;;;;;;9.43;2.97;;;21.00;70.00;;;;;;4998432;28;20025;-49
2022/06/21 07:23:22;;;;;;;7.63;2.53;;;20.50;70.50;;;;;;5006516;28;20050;-53
2022/06/21 07:26:10;;;;;;;10.80;3.40;;;20.20;74.20;;;;;;5005701;28;20034;-56
2022/06/21 07:28:39;;;;;;;12.05;2.83;;;20.10;76.70;;;;;;5007464;28;20034;-56
2022/06/21 07:31:20;;;;;;;8.93;2.92;;;20.10;75.20;;;;;;5009849;28;20040;-57
2022/06/21 07:33:59;;;;;;;6.88;2.92;;;20.40;75.00;;;;;;5011057;28;20038;-53
2022/06/21 07:36:31;;;;;;;6.43;2.53;;;20.50;72.30;;;;;;5007616;28;20068;-55
2022/06/21 07:39:04;;;;;;;9.25;2.70;;;20.50;70.10;;;;;;5011020;28;20112;-57
2022/06/21 07:41:37;;;;;;;7.13;2.25;;;20.40;71.00;;;;;;5010458;28;20030;-58
2022/06/21 07:44:28;;;;;;;6.55;2.50;;;20.20;70.70;;;;;;5010220;28;20029;-58
2022/06/21 07:47:00;;;;;;;7.22;2.42;;;20.10;71.90;;;;;;5004909;28;20044;-53
2022/06/21 07:49:38;;;;;;;12.48;3.22;;;20.10;74.30;;;;;;5010945;28;20481;-61
2022/06/21 07:52:14;;;;;;;8.35;3.03;;;20.20;73.80;;;;;;5010986;28;20100;-58
2022/06/21 07:54:47;;;;;;;6.57;2.45;;;20.20;74.20;;;;;;5010829;28;20022;-56
2022/06/21 07:57:22;;;;;;;9.05;2.85;;;20.20;70.90;;;;;;5009012;28;20168;-47
2022/06/21 08:00:02;;;;;;;8.55;2.45;;;20.40;71.80;;;;;;5010798;28;20558;-60
2022/06/21 08:08:45;;;;;;;7.40;2.53;;;21.60;69.20;;;;;;5013306;28;20033;-61
2022/06/21 08:11:36;;;;;;;7.75;2.50;;;22.20;67.40;;;;;;5014703;28;20108;-46
2022/06/21 08:14:02;;;;;;;6.60;2.40;;;22.90;67.40;;;;;;5014543;28;20054;-62
2022/06/21 08:16:56;;;;;;;6.10;2.17;;;23.30;65.60;;;;;;5013486;28;20033;-53
2022/06/21 08:19:50;;;;;;;7.13;2.22;;;23.40;62.50;;;;;;5005024;28;20121;-48
2022/06/21 08:22:27;;;;;;;8.07;2.40;;;23.60;64.50;;;;;;5012076;28;20070;-60
2022/06/21 08:24:56;;;;;;;5.50;1.90;;;23.50;63.30;;;;;;5014474;28;20037;-50
2022/06/21 08:27:43;;;;;;;7.22;1.98;;;23.80;60.00;;;;;;5014287;28;20026;-57
2022/06/21 08:30:17;;;;;;;7.22;2.17;;;23.90;59.70;;;;;;5011982;28;20477;-56
2022/06/21 08:33:33;;;;;;;4.97;1.70;;;23.90;61.30;;;;;;5014316;28;20033;-53
2022/06/21 08:36:21;;;;;;;4.28;2.08;;;24.00;62.40;;;;;;4952806;29;20031;-60
2022/06/21 08:38:52;;;;;;;5.78;1.88;;;24.10;58.50;;;;;;4953047;29;20148;-57
2022/06/21 08:41:57;;;;;;;5.00;2.22;;;24.10;60.00;;;;;;4991613;28;20026;-53
2022/06/21 08:44:41;;;;;;;9.55;1.85;;;24.30;54.90;;;;;;5013144;28;20033;-49
2022/06/21 08:47:55;;;;;;;4.20;1.60;;;24.20;56.50;;;;;;5012049;28;20050;-59
2022/06/21 08:50:30;;;;;;;6.03;1.75;;;24.30;56.10;;;;;;4996841;28;20461;-43
2022/06/21 08:53:14;;;;;;;7.90;3.00;;;24.30;54.90;;;;;;5013891;28;20030;-48
2022/06/21 08:56:04;;;;;;;6.32;2.10;;;24.40;61.30;;;;;;5013642;28;20067;-45
2022/06/21 08:58:39;;;;;;;8.35;2.47;;;24.30;55.70;;;;;;5013075;28;20029;-42
2022/06/21 09:01:33;;;;;;;8.55;2.55;;;24.60;61.50;;;;;;5013784;28;20030;-42
2022/06/21 09:04:26;;;;;;;6.22;2.30;;;24.50;59.40;;;;;;5013907;28;20457;-49
2022/06/21 09:07:12;;;;;;;8.52;2.30;;;24.60;63.30;;;;;;5011518;28;20025;-54
2022/06/21 09:09:43;;;;;;;8.00;2.60;;;24.60;62.40;;;;;;5013668;28;20083;-48
2022/06/21 09:12:18;;;;;;;6.10;2.13;;;24.70;57.80;;;;;;5013545;28;20034;-58
2022/06/21 09:14:47;;;;;;;6.30;2.08;;;24.50;60.20;;;;;;5013382;28;20042;-60
2022/06/21 09:17:31;;;;;;;8.38;2.50;;;24.50;61.70;;;;;;5012157;28;20033;-60
2022/06/21 09:20:00;;;;;;;7.20;2.40;;;24.60;63.30;;;;;;5013523;28;20120;-53
2022/06/21 09:22:44;;;;;;;7.05;2.47;;;24.80;58.40;;;;;;5013428;28;20083;-61
2022/06/21 09:25:36;;;;;;;6.82;2.20;;;24.80;60.00;;;;;;5013339;28;20022;-54
2022/06/21 09:28:30;;;;;;;6.15;2.25;;;24.90;58.00;;;;;;5013394;28;20378;-53
2022/06/21 09:31:04;;;;;;;13.43;3.00;;;24.10;55.80;;;;;;5009029;28;20554;-58
2022/06/21 09:33:35;;;;;;;9.07;2.50;;;24.30;59.80;;;;;;5013430;28;20120;-45
2022/06/21 09:36:18;;;;;;;8.18;2.58;;;24.10;59.50;;;;;;5013146;28;20076;-60
2022/06/21 09:39:21;;;;;;;8.93;2.60;;;24.30;60.80;;;;;;5013146;28;20553;-50
2022/06/21 09:41:47;;;;;;;7.15;2.40;;;24.20;57.10;;;;;;4999369;28;20045;-52
2022/06/21 09:44:19;;;;;;;5.45;2.20;;;24.00;56.30;;;;;;5013115;28;20381;-53
2022/06/21 09:47:11;;;;;;;5.95;1.95;;;23.60;58.00;;;;;;5013005;28;20059;-50
2022/06/21 09:49:59;;;;;;;7.07;2.15;;;23.20;55.50;;;;;;5012873;28;20104;-42
2022/06/21 09:52:42;;;;;;;7.00;2.45;;;23.10;58.00;;;;;;5005050;28;20050;-52
2022/06/21 09:55:17;;;;;;;6.03;2.22;;;23.00;60.30;;;;;;5011718;28;20033;-52
2022/06/21 09:58:01;;;;;;;6.95;2.30;;;23.20;65.90;;;;;;5002921;28;20118;-50
2022/06/21 10:00:40;;;;;;;6.30;2.13;;;23.40;59.50;;;;;;5003564;28;20022;-58
2022/06/21 10:03:12;;;;;;;;;;;23.50;60.30;;;;;;4996589;28;20109;-53
2022/06/21 10:05:56;;;;;;;7.07;2.78;;;23.40;57.90;;;;;;5011559;28;19910;-45
2022/06/21 10:08:34;;;;;;;6.03;2.20;;;23.20;60.40;;;;;;5012576;28;20033;-48
2022/06/21 10:11:29;;;;;;;6.00;2.20;;;23.10;61.40;;;;;;5012625;28;20018;-50
2022/06/21 10:14:18;;;;;;;4.72;2.30;;;22.80;59.70;;;;;;5012091;28;20042;-55
2022/06/21 10:17:14;;;;;;;6.53;2.20;;;22.90;65.20;;;;;;5012486;28;20040;-50
2022/06/21 10:19:46;;;;;;;6.25;2.53;;;23.10;61.50;;;;;;5003860;28;20161;-45
2022/06/21 10:22:30;;;;;;;5.43;2.15;;;23.30;55.70;;;;;;5012346;28;20028;-54
2022/06/21 10:24:55;;;;;;;5.43;1.98;;;23.20;55.20;;;;;;5004838;28;20030;-53
2022/06/21 10:27:37;;;;;;;7.03;1.65;;;23.30;56.50;;;;;;5011780;28;20156;-54
2022/06/21 10:30:26;;;;;;;5.65;1.90;;;23.30;54.80;;;;;;5012335;28;20036;-50
2022/06/21 10:33:03;;;;;;;10.60;2.10;;;23.30;53.00;;;;;;5011680;28;20054;-51
2022/06/21 10:35:39;;;;;;;5.10;2.20;;;23.60;57.40;;;;;;5012292;28;20377;-48
2022/06/21 10:38:23;;;;;;;6.10;2.10;;;23.70;55.50;;;;;;5011927;28;20363;-49
2022/06/21 10:41:22;;;;;;;6.25;1.98;;;24.20;57.70;;;;;;5012060;28;20080;-50
2022/06/21 10:44:07;;;;;;;5.28;1.75;;;24.60;55.30;;;;;;4997386;28;20026;-51
2022/06/21 10:46:44;;;;;;;6.35;1.75;;;24.70;51.40;;;;;;4997578;28;20021;-51
2022/06/21 10:49:31;;;;;;;5.20;1.70;;;24.50;50.40;;;;;;5010917;28;20030;-49
2022/06/21 10:52:18;;;;;;;5.78;1.92;;;24.70;51.60;;;;;;5011332;28;20033;-51
2022/06/21 10:55:18;;;;;;;3.75;1.40;;;24.40;52.00;;;;;;5011370;28;20493;-55
2022/06/21 10:57:54;;;;;;;4.68;1.80;;;24.40;54.20;;;;;;5004718;28;20069;-51
2022/06/21 11:03:35;;;;;;;5.47;1.77;;;24.40;54.80;;;;;;5011600;28;20040;-50
2022/06/21 11:06:38;;;;;;;7.40;2.03;;;24.50;51.00;;;;;;5007024;28;20022;-50
2022/06/21 11:09:30;;;;;;;4.85;1.77;;;24.60;52.00;;;;;;4992217;28;20030;-46
2022/06/21 11:15:04;;;;;;;8.20;1.60;;;24.60;50.90;;;;;;5008866;28;20065;-47
2022/06/21 11:17:58;;;;;;;8.90;2.30;;;24.70;50.80;;;;;;5009197;28;20022;-48
2022/06/21 11:20:35;;;;;;;5.32;1.73;;;24.20;50.70;;;;;;5009002;28;20022;-43
2022/06/21 11:23:32;;;;;;;9.15;1.88;;;24.10;54.80;;;;;;5009271;28;20020;-53
2022/06/21 11:26:33;;;;;;;8.35;2.10;;;24.10;52.50;;;;;;5009085;28;20468;-47
2022/06/21 11:29:20;;;;;;;5.57;2.20;;;24.20;54.00;;;;;;5007101;28;20034;-51
2022/06/21 11:32:13;;;;;;;5.35;2.00;;;24.60;55.60;;;;;;5003609;28;20086;-42
2022/06/21 11:35:19;;;;;;;7.13;2.20;;;24.60;50.40;;;;;;5011149;28;20052;-48
2022/06/21 11:37:47;;;;;;;7.00;2.13;;;24.30;50.90;;;;;;5010900;28;20029;-51
2022/06/21 11:40:22;;;;;;;8.60;2.60;;;24.10;53.80;;;;;;5010379;28;20049;-56
2022/06/21 11:42:52;;;;;;;5.78;2.20;;;24.20;51.80;;;;;;5011036;28;20033;-54
2022/06/21 11:45:17;;;;;;;5.68;2.25;;;24.10;50.70;;;;;;5011302;28;20488;-53
2022/06/21 11:48:24;;;;;;;8.07;2.30;;;24.30;53.60;;;;;;5011269;28;20033;-51
2022/06/21 11:51:11;;;;;;;3.85;1.70;;;24.60;51.80;;;;;;5011294;28;20030;-54
2022/06/21 11:54:21;;;;;;;5.30;2.05;;;24.50;47.90;;;;;;4997872;28;20025;-49
2022/06/21 11:57:11;;;;;;;4.15;1.73;;;24.10;49.00;;;;;;5011056;28;20022;-49
2022/06/21 11:59:40;;;;;;;5.28;1.90;;;24.20;51.50;;;;;;5010994;28;20076;-50
2022/06/21 12:02:26;;;;;;;5.03;2.03;;;24.10;50.70;;;;;;5011019;28;20038;-43
2022/06/21 12:05:01;;;;;;;5.70;2.00;;;24.10;51.60;;;;;;5010931;28;20026;-48
2022/06/21 12:07:46;;;;;;;6.07;1.90;;;24.00;52.40;;;;;;5011122;28;20028;-53
2022/06/21 12:10:26;;;;;;;5.10;2.08;;;23.90;49.00;;;;;;5010760;28;20452;-49
2022/06/21 12:13:24;;;;;;;6.57;2.20;;;24.00;50.40;;;;;;5010873;28;20092;-52
2022/06/21 12:16:26;;;;;;;5.80;2.22;;;23.90;51.70;;;;;;4986301;28;20056;-51
2022/06/21 12:18:58;;;;;;;5.30;2.13;;;24.00;55.10;;;;;;5010705;28;20075;-50
2022/06/21 12:21:29;;;;;;;5.07;2.03;;;24.20;55.30;;;;;;5011190;28;20018;-47
2022/06/21 12:23:58;;;;;;;4.70;2.22;;;24.30;53.50;;;;;;5010790;28;20056;-54
2022/06/21 12:26:27;;;;;;;4.88;2.13;;;24.30;52.90;;;;;;5010922;28;20388;-43
2022/06/21 12:28:57;;;;;;;5.13;2.10;;;24.30;55.90;;;;;;5010634;28;20025;-49
2022/06/21 12:31:29;;;;;;;5.60;2.22;;;24.40;54.90;;;;;;5011123;28;20030;-58
2022/06/21 12:34:00;;;;;;;6.20;2.30;;;24.40;54.00;;;;;;5010735;28;20064;-55
2022/06/21 12:37:04;;;;;;;8.23;2.08;;;24.40;56.20;;;;;;5010847;28;20084;-58
2022/06/21 12:39:51;;;;;;;6.30;2.00;;;24.50;52.70;;;;;;5010529;28;20021;-49
2022/06/21 12:42:35;;;;;;;4.88;2.05;;;24.60;52.50;;;;;;5010663;28;20022;-54
2022/06/21 12:45:29;;;;;;;7.35;2.30;;;24.30;53.20;;;;;;4996644;28;20017;-50
2022/06/21 12:48:22;;;;;;;5.63;2.28;;;23.90;52.20;;;;;;5010251;28;20507;-50
2022/06/21 12:50:56;;;;;;;6.70;2.20;;;23.70;55.80;;;;;;5011916;28;20049;-52
2022/06/21 12:53:43;;;;;;;6.95;2.20;;;23.80;57.10;;;;;;5013814;28;20374;-47
2022/06/21 12:56:27;;;;;;;4.38;2.10;;;23.90;58.00;;;;;;5013940;28;20022;-47
2022/06/21 12:59:14;;;;;;;6.55;2.17;;;23.80;57.40;;;;;;5002205;28;20473;-55
2022/06/21 13:02:03;;;;;;;8.57;2.15;;;23.70;55.30;;;;;;5013826;28;20024;-49
2022/06/21 13:05:02;;;;;;;4.85;2.08;;;23.60;57.70;;;;;;5013836;28;20030;-57
2022/06/21 13:07:49;;;;;;;6.00;2.53;;;23.70;56.90;;;;;;5002804;28;20068;-57
2022/06/21 13:10:34;;;;;;;4.97;1.80;;;23.80;58.90;;;;;;5013764;28;20049;-53
2022/06/21 13:13:08;;;;;;;5.60;2.20;;;23.70;53.70;;;;;;5013619;28;20030;-54
2022/06/21 13:15:58;;;;;;;6.63;2.30;;;23.70;56.80;;;;;;5013291;28;20088;-46
2022/06/21 13:18:36;;;;;;;8.10;2.40;;;23.80;58.20;;;;;;5013522;28;20061;-53
2022/06/21 13:21:18;;;;;;;6.15;2.40;;;23.80;54.00;;;;;;5013541;28;20027;-47
2022/06/21 13:24:17;;;;;;;7.45;2.15;;;24.00;55.20;;;;;;5013337;28;20052;-43
2022/06/21 13:27:27;;;;;;;6.65;2.05;;;23.90;52.40;;;;;;5013464;28;20109;-54
2022/06/21 13:30:11;;;;;;;7.55;2.25;;;24.00;50.00;;;;;;4944397;29;20023;-52
2022/06/21 13:32:53;;;;;;;5.75;1.73;;;24.00;50.40;;;;;;5008023;28;20081;-47
2022/06/21 13:35:32;;;;;;;7.15;1.95;;;23.90;53.70;;;;;;5013391;28;20030;-46
2022/06/21 13:38:11;;;;;;;4.05;1.83;;;24.10;51.40;;;;;;5001447;28;20113;-45
2022/06/21 13:40:53;;;;;;;5.28;1.70;;;24.10;49.20;;;;;;5013099;28;20042;-56
2022/06/21 13:43:36;;;;;;;6.35;1.70;;;24.20;50.80;;;;;;5013009;28;20026;-56
2022/06/21 13:46:10;;;;;;;4.70;2.05;;;24.20;49.30;;;;;;5012849;28;20028;-47
2022/06/21 13:48:48;;;;;;;7.22;1.70;;;24.20;48.20;;;;;;5012928;28;20034;-48
2022/06/21 13:51:13;;;;;;;3.95;1.65;;;24.10;45.90;;;;;;5012847;28;20037;-51
2022/06/21 13:53:57;;;;;;;3.78;1.70;;;23.70;45.90;;;;;;5012784;28;20030;-52